createdAt,value
2023-03-03T00:00:33.298Z,7.15
2023-03-03T00:03:19.347Z,7.23
2023-03-03T00:05:46.304Z,7.20
2023-03-03T00:08:13.424Z,7.18
2023-03-03T00:10:40.197Z,7.20
2023-03-03T00:13:16.424Z,7.11
2023-03-03T00:15:43.400Z,7.13
2023-03-03T00:18:26.981Z,7.12
2023-03-03T00:20:55.091Z,7.04
2023-03-03T00:23:32.255Z,7.08
2023-03-03T00:25:59.508Z,7.05
2023-03-03T00:28:41.607Z,7.01
2023-03-03T00:31:33.517Z,7.00
2023-03-03T00:34:24.809Z,6.97
2023-03-03T00:36:56.246Z,6.97
2023-03-03T00:39:23.322Z,6.94
2023-03-03T00:41:50.168Z,6.90
2023-03-03T00:44:39.746Z,6.88
2023-03-03T00:47:30.743Z,6.86
2023-03-03T00:50:07.571Z,6.84
2023-03-03T00:52:43.462Z,6.74
2023-03-03T00:55:10.600Z,6.76
2023-03-03T00:57:37.333Z,6.75
2023-03-03T01:00:04.971Z,6.77
2023-03-03T01:02:31.781Z,6.73
2023-03-03T01:04:58.847Z,6.67
2023-03-03T01:07:25.818Z,6.70
2023-03-03T01:09:52.864Z,6.67
2023-03-03T01:12:19.624Z,6.65
2023-03-03T01:14:49.323Z,6.62
2023-03-03T01:17:16.098Z,6.58
2023-03-03T01:19:43.157Z,6.55
2023-03-03T01:22:09.937Z,6.56
2023-03-03T01:24:37.004Z,6.47
2023-03-03T01:27:03.797Z,6.50
2023-03-03T01:29:30.945Z,6.49
2023-03-03T01:31:57.791Z,6.44
2023-03-03T01:34:25.156Z,6.42
2023-03-03T01:36:51.904Z,6.37
2023-03-03T01:39:18.964Z,6.37
2023-03-03T01:41:45.812Z,6.37
2023-03-03T01:44:15.865Z,6.34
2023-03-03T01:47:04.656Z,6.34
2023-03-03T01:49:43.222Z,6.30
2023-03-03T01:52:15.527Z,6.27
2023-03-03T01:54:44.991Z,6.17
2023-03-03T01:57:14.682Z,6.18
2023-03-03T01:59:44.526Z,6.18
2023-03-03T02:02:11.317Z,6.18
2023-03-03T02:04:38.478Z,6.13
2023-03-03T02:07:11.166Z,6.11
2023-03-03T02:10:00.918Z,6.13
2023-03-03T02:12:36.198Z,6.07
2023-03-03T02:15:16.120Z,6.12
2023-03-03T02:17:42.834Z,6.06
2023-03-03T02:20:19.102Z,6.06
2023-03-03T02:23:30.398Z,6.06
2023-03-03T02:25:59.021Z,6.02
2023-03-03T02:28:30.365Z,6.00
2023-03-03T02:30:58.462Z,5.98
2023-03-03T02:33:25.657Z,5.97
2023-03-03T02:35:52.790Z,5.89
2023-03-03T02:38:31.204Z,5.91
2023-03-03T02:41:17.009Z,5.87
2023-03-03T02:44:05.649Z,5.76
2023-03-03T02:46:40.043Z,5.75
2023-03-03T02:49:07.588Z,5.78
2023-03-03T02:51:34.993Z,5.80
2023-03-03T02:54:01.998Z,5.79
2023-03-03T02:56:29.171Z,5.76
2023-03-03T02:58:55.983Z,5.69
2023-03-03T03:01:23.176Z,5.74
2023-03-03T03:03:50.081Z,5.71
2023-03-03T03:06:17.232Z,5.70
2023-03-03T03:08:43.967Z,5.70
2023-03-03T03:11:11.089Z,5.68
2023-03-03T03:13:37.798Z,5.68
2023-03-03T03:16:05.296Z,5.71
2023-03-03T03:18:32.139Z,5.66
2023-03-03T03:21:06.632Z,5.64
2023-03-03T03:23:34.563Z,5.65
2023-03-03T03:26:01.690Z,5.61
2023-03-03T03:28:28.454Z,5.65
2023-03-03T03:30:55.600Z,5.61
2023-03-03T03:33:22.465Z,5.61
2023-03-03T03:35:50.496Z,5.61
2023-03-03T03:38:17.459Z,5.55
2023-03-03T03:40:44.559Z,5.56
2023-03-03T03:43:11.384Z,5.55
2023-03-03T03:45:38.500Z,5.56
2023-03-03T03:48:05.424Z,5.54
2023-03-03T03:50:32.437Z,5.55
2023-03-03T03:52:59.202Z,5.53
2023-03-03T03:55:26.239Z,5.52
2023-03-03T03:57:52.994Z,5.53
2023-03-03T04:00:20.271Z,5.56
2023-03-03T04:02:47.174Z,5.51
2023-03-03T04:05:14.391Z,5.52
2023-03-03T04:07:41.205Z,5.50
2023-03-03T04:10:08.973Z,5.50
2023-03-03T04:12:38.645Z,5.52
2023-03-03T04:15:10.322Z,5.52
2023-03-03T04:17:37.099Z,5.51
2023-03-03T04:20:04.772Z,5.48
2023-03-03T04:22:36.006Z,5.51
2023-03-03T04:25:05.283Z,5.46
2023-03-03T04:27:33.239Z,5.46
2023-03-03T04:30:00.339Z,5.49
2023-03-03T04:32:27.129Z,5.48
2023-03-03T04:35:05.639Z,5.52
2023-03-03T04:37:34.390Z,5.48
2023-03-03T04:40:01.431Z,5.47
2023-03-03T04:42:28.925Z,5.49
2023-03-03T04:44:55.991Z,5.47
2023-03-03T04:47:22.727Z,5.48
2023-03-03T04:49:49.820Z,5.49
2023-03-03T04:52:16.580Z,5.50
2023-03-03T04:54:43.721Z,5.48
2023-03-03T04:57:10.489Z,5.48
2023-03-03T04:59:37.569Z,5.43
2023-03-03T05:02:05.402Z,5.50
2023-03-03T05:04:33.128Z,5.51
2023-03-03T05:06:59.916Z,5.52
2023-03-03T05:09:27.014Z,5.47
2023-03-03T05:11:54.157Z,5.45
2023-03-03T05:14:21.251Z,5.50
2023-03-03T05:16:48.014Z,5.46
2023-03-03T05:19:15.120Z,5.51
2023-03-03T05:21:42.616Z,5.54
2023-03-03T05:24:10.807Z,5.58
2023-03-03T05:26:37.701Z,5.56
2023-03-03T05:29:04.937Z,5.51
2023-03-03T05:31:31.750Z,5.49
2023-03-03T05:33:58.899Z,5.53
2023-03-03T05:36:25.748Z,5.50
2023-03-03T05:38:52.924Z,5.53
2023-03-03T05:41:19.740Z,5.49
2023-03-03T05:43:46.808Z,5.51
2023-03-03T05:46:13.644Z,5.59
2023-03-03T05:48:40.830Z,5.58
2023-03-03T05:51:07.612Z,5.53
2023-03-03T05:53:34.735Z,5.51
2023-03-03T05:56:01.462Z,5.49
2023-03-03T05:58:28.641Z,5.51
2023-03-03T06:00:55.382Z,5.47
2023-03-03T06:03:22.610Z,5.48
2023-03-03T06:05:49.373Z,5.49
2023-03-03T06:08:16.508Z,5.49
2023-03-03T06:10:43.280Z,5.53
2023-03-03T06:13:10.344Z,5.52
2023-03-03T06:15:37.216Z,5.51
2023-03-03T06:18:04.388Z,5.53
2023-03-03T06:20:31.728Z,5.48
2023-03-03T06:22:58.832Z,5.49
2023-03-03T06:25:25.563Z,5.47
2023-03-03T06:27:52.701Z,5.51
2023-03-03T06:30:19.546Z,5.45
2023-03-03T06:32:46.901Z,5.47
2023-03-03T06:35:13.811Z,5.47
2023-03-03T06:37:40.883Z,5.44
2023-03-03T06:40:08.226Z,5.45
2023-03-03T06:42:35.302Z,5.43
2023-03-03T06:45:02.024Z,5.45
2023-03-03T06:47:29.070Z,5.45
2023-03-03T06:49:55.828Z,5.48
2023-03-03T06:52:24.569Z,5.47
2023-03-03T06:54:53.818Z,5.49
2023-03-03T06:57:27.953Z,5.46
2023-03-03T06:59:57.144Z,5.50
2023-03-03T07:02:24.248Z,5.50
2023-03-03T07:04:51.054Z,5.44
2023-03-03T07:07:25.534Z,5.45
2023-03-03T07:09:54.273Z,5.43
2023-03-03T07:12:27.266Z,5.46
2023-03-03T07:15:22.368Z,5.44
2023-03-03T07:17:51.334Z,5.49
2023-03-03T07:20:19.605Z,5.51
2023-03-03T07:22:46.738Z,5.50
2023-03-03T07:25:30.194Z,5.49
2023-03-03T07:28:04.505Z,5.50
2023-03-03T07:30:31.340Z,5.49
2023-03-03T07:32:58.577Z,5.49
2023-03-03T07:35:44.361Z,5.53
2023-03-03T07:38:20.638Z,5.51
2023-03-03T07:40:55.352Z,5.59
2023-03-03T07:43:48.609Z,5.58
2023-03-03T07:46:29.335Z,5.56
2023-03-03T07:48:57.696Z,5.54
2023-03-03T07:51:29.233Z,5.53
2023-03-03T07:54:31.689Z,5.55
2023-03-03T07:57:28.157Z,5.57
2023-03-03T08:00:17.132Z,5.57
2023-03-03T08:02:47.702Z,5.60
2023-03-03T08:05:31.505Z,5.64
2023-03-03T08:08:10.690Z,5.68
2023-03-03T08:10:43.512Z,5.66
2023-03-03T08:13:17.667Z,5.67
2023-03-03T08:15:46.071Z,5.68
2023-03-03T08:18:24.354Z,5.69
2023-03-03T08:20:53.340Z,5.69
2023-03-03T08:23:20.367Z,5.69
2023-03-03T08:25:47.834Z,5.75
2023-03-03T08:28:14.680Z,5.75
2023-03-03T08:30:42.105Z,5.73
2023-03-03T08:33:08.891Z,5.76
2023-03-03T08:35:36.096Z,5.74
2023-03-03T08:38:03.053Z,5.76
2023-03-03T08:40:31.143Z,5.80
2023-03-03T08:42:58.274Z,5.88
2023-03-03T08:45:26.068Z,5.86
2023-03-03T08:47:52.910Z,5.93
2023-03-03T08:50:38.756Z,5.86
2023-03-03T08:53:05.939Z,5.89
2023-03-03T08:55:32.733Z,5.89
2023-03-03T08:57:59.830Z,5.92
2023-03-03T09:00:26.691Z,5.92
2023-03-03T09:02:53.941Z,5.91
2023-03-03T09:05:20.924Z,5.91
2023-03-03T09:07:48.331Z,5.96
2023-03-03T09:10:17.182Z,5.98
2023-03-03T09:12:48.679Z,6.00
2023-03-03T09:15:26.896Z,5.99
2023-03-03T09:17:54.015Z,6.00
2023-03-03T09:20:29.782Z,5.92
2023-03-03T09:22:56.904Z,5.98
2023-03-03T09:25:30.305Z,5.99
2023-03-03T09:27:57.443Z,6.00
2023-03-03T09:30:29.820Z,6.03
2023-03-03T09:32:57.350Z,6.02
2023-03-03T09:35:36.118Z,6.08
2023-03-03T09:38:30.649Z,6.02
2023-03-03T09:41:11.217Z,6.02
2023-03-03T09:44:01.171Z,6.02
2023-03-03T09:46:52.367Z,6.04
2023-03-03T09:49:33.181Z,6.06
2023-03-03T09:52:31.042Z,6.08
2023-03-03T09:55:08.069Z,6.09
2023-03-03T09:58:10.860Z,6.09
2023-03-03T10:01:13.604Z,6.12
2023-03-03T10:03:55.627Z,6.13
2023-03-03T10:06:29.297Z,6.44
2023-03-03T10:08:56.025Z,6.64
2023-03-03T10:11:42.934Z,6.79
2023-03-03T10:14:35.249Z,6.81
2023-03-03T10:17:14.508Z,6.76
2023-03-03T10:19:46.403Z,6.63
2023-03-03T10:22:35.036Z,6.61
2023-03-03T10:25:24.904Z,6.54
2023-03-03T10:28:16.961Z,6.56
2023-03-03T10:31:06.188Z,6.50
2023-03-03T10:34:12.085Z,6.52
2023-03-03T10:36:54.121Z,6.56
2023-03-03T10:39:48.815Z,6.51
2023-03-03T10:42:32.105Z,6.48
2023-03-03T10:45:02.264Z,6.47
2023-03-03T10:48:09.329Z,6.47
2023-03-03T10:50:45.576Z,6.52
2023-03-03T10:53:21.321Z,6.47
2023-03-03T10:55:59.150Z,6.52
2023-03-03T10:58:32.691Z,6.50
2023-03-03T11:01:03.666Z,6.54
2023-03-03T11:03:41.062Z,6.53
2023-03-03T11:06:34.074Z,6.54
2023-03-03T11:09:19.479Z,6.55
2023-03-03T11:11:46.476Z,6.55
2023-03-03T11:14:19.417Z,6.55
2023-03-03T11:17:24.836Z,6.54
2023-03-03T11:20:05.050Z,6.52
2023-03-03T11:22:46.752Z,6.52
2023-03-03T11:25:35.429Z,6.50
2023-03-03T11:28:02.493Z,6.54
2023-03-03T11:30:34.420Z,6.58
2023-03-03T11:33:34.082Z,6.58
2023-03-03T11:36:27.690Z,6.51
2023-03-03T11:38:59.962Z,6.49
2023-03-03T11:41:46.055Z,6.57
2023-03-03T11:44:19.071Z,6.60
2023-03-03T11:47:03.999Z,6.59
2023-03-03T11:49:50.045Z,6.58
2023-03-03T11:52:22.243Z,6.57
2023-03-03T11:55:02.624Z,6.58
2023-03-03T11:57:37.039Z,6.58
2023-03-03T12:00:16.534Z,6.65
2023-03-03T12:02:52.604Z,6.60
2023-03-03T12:05:28.994Z,6.61
2023-03-03T12:08:19.320Z,6.61
2023-03-03T12:10:49.266Z,6.68
2023-03-03T12:13:30.315Z,6.68
2023-03-03T12:16:04.637Z,6.63
2023-03-03T12:18:53.963Z,6.60
2023-03-03T12:21:36.211Z,6.69
2023-03-03T12:24:08.467Z,6.65
2023-03-03T12:26:45.009Z,6.64
2023-03-03T12:29:12.146Z,6.65
2023-03-03T12:32:00.381Z,6.65
2023-03-03T12:34:41.417Z,6.66
2023-03-03T12:37:23.234Z,6.63
2023-03-03T12:39:52.895Z,6.71
2023-03-03T12:42:42.362Z,6.69
2023-03-03T12:45:24.506Z,6.69
2023-03-03T12:47:57.981Z,6.67
2023-03-03T12:50:34.590Z,6.72
2023-03-03T12:53:09.900Z,6.71
2023-03-03T12:55:52.104Z,6.67
2023-03-03T12:58:31.341Z,6.70
2023-03-03T13:01:07.176Z,6.71
2023-03-03T13:03:58.301Z,6.72
2023-03-03T13:06:51.870Z,6.69
2023-03-03T13:09:39.279Z,6.70
2023-03-03T13:12:18.192Z,6.78
2023-03-03T13:14:54.591Z,6.74
2023-03-03T13:17:25.094Z,6.76
2023-03-03T13:20:03.183Z,6.80
2023-03-03T13:22:39.060Z,6.74
2023-03-03T13:25:09.531Z,6.76
2023-03-03T13:27:39.852Z,6.80
2023-03-03T13:30:22.929Z,6.83
2023-03-03T13:33:31.259Z,6.81
2023-03-03T13:36:01.238Z,6.83
2023-03-03T13:38:37.433Z,6.86
2023-03-03T13:41:29.745Z,6.84
2023-03-03T13:44:01.533Z,6.86
2023-03-03T13:46:43.416Z,6.89
2023-03-03T13:49:28.675Z,6.94
2023-03-03T13:52:06.525Z,6.88
2023-03-03T13:54:42.832Z,6.92
2023-03-03T13:57:18.983Z,6.88
2023-03-03T13:59:51.704Z,6.94
2023-03-03T14:02:46.095Z,6.96
2023-03-03T14:05:44.730Z,6.94
2023-03-03T14:08:18.046Z,6.96
2023-03-03T14:11:10.747Z,7.02
2023-03-03T14:13:49.515Z,7.03
2023-03-03T14:16:20.890Z,7.00
2023-03-03T14:18:57.175Z,7.02
2023-03-03T14:21:28.367Z,7.05
2023-03-03T14:24:16.692Z,7.08
2023-03-03T14:26:54.185Z,7.04
2023-03-03T14:29:27.527Z,7.06
2023-03-03T14:32:01.749Z,7.10
2023-03-03T14:34:39.764Z,7.10
2023-03-03T14:37:27.486Z,7.14
2023-03-03T14:40:22.544Z,7.06
2023-03-03T14:42:52.393Z,7.11
2023-03-03T14:45:29.579Z,7.12
2023-03-03T14:47:56.963Z,7.11
2023-03-03T14:50:30.876Z,7.14
2023-03-03T14:53:18.866Z,7.13
2023-03-03T14:55:47.807Z,7.16
2023-03-03T14:58:39.456Z,7.14
2023-03-03T15:01:35.244Z,7.17
2023-03-03T15:04:10.614Z,7.21
2023-03-03T15:06:37.879Z,7.19
2023-03-03T15:09:45.586Z,7.18
2023-03-03T15:12:26.737Z,7.21
2023-03-03T15:15:06.269Z,7.19
2023-03-03T15:17:37.346Z,7.16
2023-03-03T15:20:32.212Z,7.20
2023-03-03T15:23:09.183Z,7.19
2023-03-03T15:25:55.989Z,7.18
2023-03-03T15:28:52.740Z,7.28
2023-03-03T15:31:32.905Z,7.23
2023-03-03T15:34:13.597Z,7.21
2023-03-03T15:37:31.067Z,7.20
2023-03-03T15:40:04.146Z,7.23
2023-03-03T15:42:42.929Z,7.20
2023-03-03T15:45:25.417Z,7.20
2023-03-03T15:48:10.940Z,7.19
2023-03-03T15:50:37.904Z,7.20
2023-03-03T15:53:05.827Z,7.17
2023-03-03T15:55:44.773Z,7.17
2023-03-03T15:58:30.282Z,7.18
2023-03-03T16:01:03.375Z,7.16
2023-03-03T16:03:36.456Z,7.14
2023-03-03T16:06:06.863Z,7.16
2023-03-03T16:09:02.752Z,7.14
2023-03-03T16:11:34.986Z,7.14
2023-03-03T16:14:16.341Z,7.14
2023-03-03T16:17:14.633Z,7.11
2023-03-03T16:19:49.672Z,7.12
2023-03-03T16:22:30.128Z,7.15
2023-03-03T16:25:07.251Z,7.11
2023-03-03T16:27:48.510Z,7.11
2023-03-03T16:30:28.438Z,7.11
2023-03-03T16:33:04.600Z,7.12
2023-03-03T16:35:39.659Z,7.08
2023-03-03T16:38:11.501Z,7.09
2023-03-03T16:40:49.771Z,7.08
2023-03-03T16:43:16.895Z,7.08
2023-03-03T16:45:43.725Z,7.08
2023-03-03T16:48:20.924Z,7.03
2023-03-03T16:50:57.398Z,7.03
2023-03-03T16:53:39.809Z,7.05
2023-03-03T16:56:09.391Z,7.02
2023-03-03T16:58:55.261Z,7.03
2023-03-03T17:01:28.821Z,7.01
2023-03-03T17:04:02.404Z,7.02
2023-03-03T17:06:31.341Z,7.03
2023-03-03T17:09:31.800Z,6.99
2023-03-03T17:12:11.468Z,6.98
2023-03-03T17:14:47.791Z,6.96
2023-03-03T17:17:36.844Z,6.99
2023-03-03T17:20:16.339Z,6.97
2023-03-03T17:23:03.286Z,6.97
2023-03-03T17:25:43.059Z,7.00
2023-03-03T17:28:19.085Z,7.02
2023-03-03T17:30:53.418Z,6.99
2023-03-03T17:33:23.235Z,6.93
2023-03-03T17:36:16.307Z,6.94
2023-03-03T17:39:06.334Z,6.96
2023-03-03T17:41:40.836Z,6.93
2023-03-03T17:44:10.598Z,6.94
2023-03-03T17:47:08.322Z,6.97
2023-03-03T17:50:13.996Z,6.94
2023-03-03T17:52:44.020Z,6.95
2023-03-03T17:55:23.709Z,6.91
2023-03-03T17:58:03.022Z,6.90
2023-03-03T18:01:00.504Z,6.87
2023-03-03T18:03:52.195Z,6.86
2023-03-03T18:06:27.534Z,6.85
2023-03-03T18:09:23.964Z,6.89
2023-03-03T18:11:50.621Z,6.88
2023-03-03T18:14:36.426Z,6.88
2023-03-03T18:17:31.038Z,6.87
2023-03-03T18:20:10.310Z,6.85
2023-03-03T18:22:45.982Z,6.85
2023-03-03T18:25:14.353Z,6.84
2023-03-03T18:27:42.635Z,6.85
2023-03-03T18:30:20.398Z,6.81
2023-03-03T18:32:56.241Z,6.86
2023-03-03T18:35:38.725Z,6.82
2023-03-03T18:38:17.926Z,6.83
2023-03-03T18:41:10.011Z,6.80
2023-03-03T18:43:45.801Z,6.77
2023-03-03T18:46:24.716Z,7.16
2023-03-03T18:49:00.776Z,7.16
2023-03-03T18:51:40.125Z,7.03
2023-03-03T18:54:13.650Z,6.98
2023-03-03T18:56:55.230Z,6.95
2023-03-03T18:59:34.218Z,6.91
2023-03-03T19:02:13.380Z,6.92
2023-03-03T19:04:44.892Z,6.91
2023-03-03T19:07:28.490Z,6.90
2023-03-03T19:10:01.457Z,6.89
2023-03-03T19:12:51.637Z,6.87
2023-03-03T19:15:36.664Z,6.85
2023-03-03T19:18:15.058Z,6.87
2023-03-03T19:20:46.014Z,6.90
2023-03-03T19:23:17.741Z,6.92
2023-03-03T19:25:44.581Z,6.93
2023-03-03T19:28:14.755Z,6.94
2023-03-03T19:31:17.139Z,6.84
2023-03-03T19:33:57.113Z,6.87
2023-03-03T19:36:49.017Z,6.86
2023-03-03T19:39:39.155Z,6.92
2023-03-03T19:42:14.204Z,6.91
2023-03-03T19:45:11.757Z,6.88
2023-03-03T19:47:59.891Z,6.86
2023-03-03T19:51:05.486Z,6.86
2023-03-03T19:53:39.517Z,6.93
2023-03-03T19:56:10.896Z,6.92
2023-03-03T19:58:50.688Z,6.95
2023-03-03T20:01:38.073Z,6.91
2023-03-03T20:04:26.224Z,6.80
2023-03-03T20:06:57.900Z,6.83
2023-03-03T20:09:33.849Z,6.85
2023-03-03T20:12:16.097Z,6.88
2023-03-03T20:14:51.880Z,6.82
2023-03-03T20:17:29.495Z,6.81
2023-03-03T20:19:57.749Z,6.73
2023-03-03T20:22:31.572Z,6.81
2023-03-03T20:25:19.979Z,6.85
2023-03-03T20:27:55.346Z,6.81
2023-03-03T20:30:59.157Z,6.83
2023-03-03T20:33:44.124Z,6.88
2023-03-03T20:36:43.261Z,6.84
2023-03-03T20:39:33.330Z,6.87
2023-03-03T20:42:15.354Z,6.85
2023-03-03T20:44:58.612Z,6.81
2023-03-03T20:47:25.338Z,6.89
2023-03-03T20:50:22.653Z,6.86
2023-03-03T20:53:24.596Z,6.79
2023-03-03T20:56:16.848Z,6.83
2023-03-03T20:59:01.372Z,6.82
2023-03-03T21:01:36.611Z,6.83
2023-03-03T21:04:22.049Z,6.79
2023-03-03T21:06:49.155Z,6.81
2023-03-03T21:09:32.661Z,6.78
2023-03-03T21:12:00.642Z,6.77
2023-03-03T21:14:36.898Z,6.80
2023-03-03T21:17:27.045Z,6.75
2023-03-03T21:19:53.799Z,6.77
2023-03-03T21:22:20.855Z,6.72
2023-03-03T21:24:55.498Z,6.76
2023-03-03T21:27:33.254Z,6.75
2023-03-03T21:30:14.056Z,6.72
2023-03-03T21:32:43.000Z,6.75
2023-03-03T21:35:14.668Z,6.75
2023-03-03T21:37:53.281Z,6.75
2023-03-03T21:40:25.788Z,6.75
2023-03-03T21:42:54.663Z,6.80
2023-03-03T21:45:21.872Z,6.76
2023-03-03T21:47:48.701Z,6.74
2023-03-03T21:50:16.443Z,6.76
2023-03-03T21:52:43.226Z,6.79
2023-03-03T21:55:10.486Z,6.83
2023-03-03T21:57:37.295Z,6.76
2023-03-03T22:00:05.651Z,6.77
2023-03-03T22:02:32.470Z,6.74
2023-03-03T22:04:59.737Z,6.78
2023-03-03T22:07:26.530Z,6.77
2023-03-03T22:09:53.612Z,6.80
2023-03-03T22:12:20.429Z,6.82
2023-03-03T22:14:47.571Z,6.78
2023-03-03T22:17:14.349Z,6.79
2023-03-03T22:19:41.471Z,6.78
2023-03-03T22:22:08.227Z,6.75
2023-03-03T22:24:35.284Z,6.77
2023-03-03T22:27:03.492Z,6.74
2023-03-03T22:29:30.603Z,6.76
2023-03-03T22:31:57.457Z,6.76
2023-03-03T22:34:24.750Z,6.76
2023-03-03T22:36:51.583Z,6.76
2023-03-03T22:39:18.681Z,6.69
2023-03-03T22:41:45.413Z,6.72
2023-03-03T22:44:12.497Z,6.75
2023-03-03T22:46:39.383Z,6.72
2023-03-03T22:49:06.528Z,6.78
2023-03-03T22:51:33.327Z,6.75
2023-03-03T22:54:00.423Z,6.77
2023-03-03T22:56:27.179Z,6.77
2023-03-03T22:58:54.230Z,6.75
2023-03-03T23:01:21.030Z,6.77
2023-03-03T23:03:48.076Z,6.76
2023-03-03T23:06:14.866Z,6.78
2023-03-03T23:08:41.947Z,6.78
2023-03-03T23:11:08.720Z,6.75
2023-03-03T23:13:35.820Z,6.77
2023-03-03T23:16:03.081Z,6.77
2023-03-03T23:18:30.232Z,6.75
2023-03-03T23:20:57.042Z,6.75
2023-03-03T23:23:24.252Z,6.76
2023-03-03T23:25:51.065Z,6.77
2023-03-03T23:28:19.301Z,6.75
2023-03-03T23:30:46.242Z,6.75
2023-03-03T23:33:13.408Z,6.75
2023-03-03T23:35:40.441Z,6.74
2023-03-03T23:38:07.559Z,6.69
2023-03-03T23:40:34.342Z,6.71
2023-03-03T23:43:01.405Z,6.73
2023-03-03T23:45:28.182Z,6.68
2023-03-03T23:47:55.195Z,6.73
2023-03-03T23:50:21.947Z,6.73
2023-03-03T23:52:49.126Z,6.72
2023-03-03T23:55:16.162Z,6.73
2023-03-03T23:57:43.244Z,6.70
